Valdez, New Mexico
Current Conditions -  °F | °C
As of 9:35 PM on Thursday 18 Dec 2014 (Local Time) from KSKX Reporting Station
Overcast Overcast  
Wind Chill: 21°   Ceiling: 4400
Heat Index: 28°   Visibility: 10mi
Dew Point: 21°   Wind: 7mph
Humidity: 74%   Direction: 350°N
Pressure: 30.12"   Gusts: NA
Location:  36.53°N, 105.58°W
Report Text: KSKX 190435Z AUTO 35006KT 10SM OVC044 M02/M06 A3012 RMK AO1
Loading
Personal Weather Stations






























Interactive Weather Map New forecast layout! Learn more

10-Day Weather Forecast

Advertisements
Track Severe Weather on mobile